createdAt,value
2018-08-08T04:27:53.147Z,99.90
2018-08-08T04:30:21.614Z,99.90
2018-08-08T04:32:49.809Z,99.90
2018-08-08T04:35:17.982Z,99.90
2018-08-08T04:37:46.112Z,99.90
2018-08-08T04:40:16.042Z,99.90
2018-08-08T04:42:45.352Z,99.90
2018-08-08T04:45:13.982Z,99.90
2018-08-08T04:47:42.704Z,99.90
2018-08-08T04:50:11.180Z,99.90
2018-08-08T04:52:39.276Z,99.90
2018-08-08T04:55:09.028Z,99.90
2018-08-08T04:57:37.428Z,99.90
2018-08-08T05:00:07.460Z,99.90
2018-08-08T05:02:36.030Z,99.90
2018-08-08T05:05:05.052Z,99.90
2018-08-08T05:07:33.146Z,99.90
2018-08-08T05:10:01.260Z,99.90
2018-08-08T05:12:29.347Z,99.90
2018-08-08T05:14:57.472Z,99.90
2018-08-08T05:17:25.572Z,99.90
2018-08-08T05:19:53.699Z,99.90
2018-08-08T05:22:21.809Z,99.90
2018-08-08T05:24:49.920Z,99.90
2018-08-08T05:27:18.104Z,99.90
2018-08-08T05:29:46.337Z,99.90
2018-08-08T05:32:14.443Z,99.90
2018-08-08T05:34:42.564Z,99.90
2018-08-08T05:37:10.656Z,99.90
2018-08-08T05:39:38.764Z,99.90
2018-08-08T05:42:06.892Z,99.90
2018-08-08T05:44:35.000Z,99.90
2018-08-08T05:47:03.096Z,99.90
2018-08-08T05:49:31.224Z,99.90
2018-08-08T05:51:59.494Z,99.90
2018-08-08T05:54:27.572Z,99.90
2018-08-08T05:56:55.671Z,99.90
2018-08-08T05:59:23.784Z,99.90
2018-08-08T06:01:51.888Z,99.90
2018-08-08T06:04:20.260Z,99.90
2018-08-08T06:06:48.352Z,99.90
2018-08-08T06:09:16.442Z,99.90
2018-08-08T06:11:44.646Z,99.90
2018-08-08T06:14:12.729Z,99.90
2018-08-08T06:16:40.822Z,99.90
2018-08-08T06:19:08.919Z,99.90
2018-08-08T06:21:37.004Z,99.90
2018-08-08T06:24:05.313Z,99.90
2018-08-08T06:26:33.391Z,99.90
2018-08-08T06:29:01.502Z,99.90
2018-08-08T06:31:29.604Z,99.90
2018-08-08T06:33:57.734Z,99.90
2018-08-08T06:36:25.815Z,99.90
2018-08-08T06:38:53.928Z,99.90
2018-08-08T06:41:22.073Z,99.90
2018-08-08T06:43:50.285Z,99.90
2018-08-08T13:22:20.601Z,76.80
2018-08-08T13:24:48.789Z,80.00
2018-08-08T13:27:16.846Z,79.70
2018-08-08T13:29:45.069Z,82.10
2018-08-08T13:32:13.169Z,82.90
2018-08-08T13:34:41.269Z,84.40
2018-08-08T13:37:09.442Z,83.90
2018-08-08T13:39:37.520Z,81.80
2018-08-08T13:42:05.744Z,80.50
2018-08-08T13:44:33.849Z,80.10
2018-08-08T13:47:01.964Z,78.60
2018-08-08T13:49:30.057Z,77.20
2018-08-08T13:51:58.146Z,77.80
2018-08-08T13:54:26.244Z,78.70
2018-08-08T13:56:54.357Z,79.70
2018-08-08T13:59:22.509Z,79.10
2018-08-08T14:01:50.592Z,77.80
2018-08-08T14:04:18.685Z,76.00
2018-08-08T14:06:46.803Z,73.70
2018-08-08T14:09:14.924Z,72.40
2018-08-08T14:11:43.021Z,72.50
2018-08-08T14:14:11.145Z,73.30
2018-08-08T14:16:39.220Z,73.80
2018-08-08T14:19:07.337Z,74.80
2018-08-08T14:21:35.428Z,74.40
2018-08-08T14:24:03.690Z,76.10
2018-08-08T14:26:31.772Z,76.70
2018-08-08T14:28:59.894Z,76.30
2018-08-08T14:31:27.969Z,76.20
2018-08-08T14:33:56.049Z,75.40
2018-08-08T14:36:24.184Z,76.60
2018-08-08T14:38:52.276Z,76.70
2018-08-08T14:41:20.391Z,78.60
2018-08-08T14:43:48.480Z,78.50
2018-08-08T14:46:16.567Z,77.70
2018-08-08T14:48:44.677Z,76.60
2018-08-08T14:51:12.771Z,76.30
2018-08-08T14:53:40.894Z,74.20
2018-08-08T14:56:08.961Z,74.30
2018-08-08T14:58:37.042Z,74.50
2018-08-08T15:01:05.141Z,73.70
2018-08-08T15:03:33.437Z,74.90
2018-08-08T15:06:01.589Z,77.00
2018-08-08T15:08:29.646Z,77.40
2018-08-08T15:10:57.732Z,78.70
2018-08-08T15:13:25.853Z,78.50
2018-08-08T15:15:53.942Z,78.70
2018-08-08T15:18:22.062Z,78.40
2018-08-08T15:20:50.214Z,77.90
2018-08-08T15:23:18.327Z,77.00
2018-08-08T15:25:46.424Z,78.10
2018-08-08T15:28:14.548Z,78.00
2018-08-08T15:30:42.736Z,78.10
2018-08-08T15:33:10.837Z,79.90
2018-08-08T15:35:38.933Z,78.50
2018-08-08T15:38:07.126Z,79.20
2018-08-08T15:40:35.221Z,80.20
2018-08-08T15:43:03.369Z,80.20
2018-08-08T15:45:31.449Z,79.60
2018-08-08T15:47:59.556Z,80.00
2018-08-08T15:50:27.685Z,80.40
2018-08-08T15:52:55.773Z,81.50
2018-08-08T15:55:23.882Z,82.70
2018-08-08T15:57:51.973Z,83.20
2018-08-08T16:00:20.080Z,83.00
2018-08-08T16:02:48.201Z,83.00
2018-08-08T16:05:16.293Z,82.20
2018-08-08T16:07:44.424Z,80.90
2018-08-08T16:10:12.792Z,81.90
2018-08-08T16:12:40.904Z,82.60
2018-08-08T16:15:10.092Z,81.90
2018-08-08T16:17:38.184Z,81.20
2018-08-08T16:20:06.317Z,79.80
2018-08-08T16:22:34.523Z,81.20
2018-08-08T16:25:03.237Z,81.20
2018-08-08T16:27:31.334Z,81.80
2018-08-08T16:29:59.460Z,81.80
2018-08-08T16:32:27.561Z,81.40
2018-08-08T16:34:55.750Z,81.70
2018-08-08T16:37:23.928Z,80.70
2018-08-08T16:39:52.030Z,81.40
2018-08-08T16:42:20.115Z,81.70
2018-08-08T16:44:48.281Z,81.70
2018-08-08T16:47:16.363Z,81.00
2018-08-08T16:49:44.488Z,82.00
2018-08-08T16:52:12.666Z,82.90
2018-08-08T16:54:40.752Z,82.80
2018-08-08T16:57:09.185Z,83.70
2018-08-08T16:59:37.280Z,84.40
2018-08-08T17:02:05.436Z,83.50
2018-08-08T17:04:33.557Z,83.50
2018-08-08T17:07:01.645Z,84.10
2018-08-08T17:09:29.740Z,84.90
2018-08-08T17:11:57.853Z,86.20
2018-08-08T17:14:26.008Z,87.10
2018-08-08T17:16:54.046Z,88.10
2018-08-08T17:19:22.174Z,86.80
2018-08-08T17:21:50.316Z,87.20
2018-08-08T17:24:18.402Z,87.80
2018-08-08T17:26:46.511Z,90.00
2018-08-08T17:29:14.606Z,90.40
2018-08-08T17:31:42.740Z,90.10
2018-08-08T17:34:10.827Z,89.70
2018-08-08T17:36:38.913Z,89.60
2018-08-08T17:39:08.136Z,90.10
2018-08-08T17:41:36.276Z,90.00
2018-08-08T17:44:04.608Z,90.50
2018-08-08T17:46:32.737Z,91.30
2018-08-08T17:49:00.848Z,92.10
2018-08-08T17:51:29.159Z,91.60
2018-08-08T17:53:57.368Z,91.80
2018-08-08T17:56:25.494Z,91.70
2018-08-08T17:58:53.608Z,92.00
2018-08-08T18:01:21.693Z,91.70
2018-08-08T18:03:49.813Z,91.90
2018-08-08T18:06:17.913Z,91.50
2018-08-08T18:08:46.003Z,91.60
2018-08-08T18:11:14.113Z,92.10
2018-08-08T18:13:42.222Z,92.00
2018-08-08T18:16:10.392Z,92.70
2018-08-08T18:18:38.461Z,92.60
2018-08-08T18:21:06.638Z,92.90
2018-08-08T18:23:34.712Z,93.60
2018-08-08T18:26:02.802Z,93.40
2018-08-08T18:28:30.920Z,92.90
2018-08-08T18:30:59.094Z,92.30
2018-08-08T18:33:27.157Z,92.40
2018-08-08T18:35:55.252Z,92.40
2018-08-08T18:38:23.336Z,92.80
2018-08-08T18:40:52.148Z,92.50
2018-08-08T18:43:20.271Z,92.70
2018-08-08T18:45:48.359Z,93.40
2018-08-08T18:48:16.523Z,94.20
2018-08-08T18:50:44.622Z,94.10
2018-08-08T18:53:12.799Z,95.10
2018-08-08T18:55:47.511Z,95.20
2018-08-08T18:58:15.706Z,95.30
2018-08-08T19:00:43.845Z,94.60
2018-08-08T19:03:11.940Z,95.20
2018-08-08T19:05:40.031Z,95.00
2018-08-08T19:08:08.141Z,95.10
2018-08-08T19:10:36.218Z,95.10
2018-08-08T19:13:04.322Z,95.10
2018-08-08T19:15:32.440Z,94.80
2018-08-08T19:18:00.569Z,94.80
2018-08-08T19:20:28.663Z,95.10
2018-08-08T19:22:56.737Z,95.00
2018-08-08T19:25:24.885Z,95.30
2018-08-08T19:27:53.024Z,95.50
2018-08-08T19:30:21.119Z,95.80
2018-08-08T19:32:49.221Z,95.50
2018-08-08T19:35:17.314Z,95.40
2018-08-08T19:37:45.415Z,95.30
2018-08-08T19:40:13.524Z,95.70
2018-08-08T19:42:41.664Z,96.00
2018-08-08T19:45:09.756Z,96.20
2018-08-08T19:47:37.863Z,96.20
2018-08-08T19:50:06.626Z,96.10
2018-08-08T19:52:34.729Z,96.20
2018-08-08T19:55:02.900Z,96.00
2018-08-08T19:57:31.807Z,95.80
2018-08-08T19:59:59.895Z,95.90
2018-08-08T20:02:28.048Z,96.20
2018-08-08T20:04:56.166Z,96.50
2018-08-08T20:07:24.283Z,96.10
2018-08-08T20:09:52.364Z,96.00
2018-08-08T20:12:20.456Z,95.90
2018-08-08T20:14:48.583Z,95.80
2018-08-08T20:17:16.668Z,96.00
2018-08-08T20:19:44.819Z,95.90
2018-08-08T20:22:15.748Z,96.20
2018-08-08T20:24:43.966Z,96.50
2018-08-08T20:27:12.361Z,96.50
2018-08-08T20:29:40.869Z,96.40
2018-08-08T20:32:09.161Z,96.50
2018-08-08T20:34:37.293Z,96.90
2018-08-08T20:37:05.408Z,97.20
2018-08-08T20:39:33.500Z,97.10
2018-08-08T20:42:01.605Z,96.80
2018-08-08T20:44:29.914Z,96.60
2018-08-08T20:46:58.097Z,96.60
2018-08-08T20:49:26.464Z,96.70
2018-08-08T20:51:54.550Z,96.70
2018-08-08T20:54:22.639Z,96.70
2018-08-08T20:56:50.770Z,96.80
2018-08-08T21:02:40.962Z,96.80
2018-08-08T21:05:09.088Z,97.10
2018-08-08T21:07:37.292Z,97.50
2018-08-08T21:10:05.440Z,97.50
2018-08-08T21:12:33.548Z,97.60
2018-08-08T21:15:01.838Z,97.60
2018-08-08T21:17:30.003Z,97.70
2018-08-08T21:19:58.107Z,98.20
2018-08-08T21:22:26.225Z,98.70
2018-08-08T21:24:54.392Z,99.30
2018-08-08T21:27:22.476Z,99.60
2018-08-08T21:29:50.620Z,99.50
2018-08-08T21:32:18.768Z,99.40
2018-08-08T21:34:46.873Z,99.60
2018-08-08T21:37:14.985Z,99.90
2018-08-08T21:39:43.095Z,99.90
2018-08-08T21:42:11.234Z,99.90
2018-08-08T21:44:39.332Z,99.90
2018-08-08T21:47:07.480Z,99.90
2018-08-08T21:49:35.634Z,99.90
2018-08-08T21:52:03.792Z,99.90
2018-08-08T21:54:43.285Z,99.90
2018-08-08T21:57:34.800Z,99.90
2018-08-08T22:00:14.500Z,99.90
2018-08-08T22:02:54.174Z,99.90
2018-08-08T22:05:33.700Z,99.90
2018-08-08T22:08:13.293Z,99.90
2018-08-08T22:10:52.783Z,99.90
2018-08-08T22:13:32.345Z,99.90
2018-08-08T22:16:11.945Z,99.90
2018-08-08T22:18:51.411Z,99.90
2018-08-08T22:21:19.528Z,99.90
2018-08-08T22:23:47.625Z,99.90
2018-08-08T22:26:15.745Z,99.90
2018-08-08T22:28:43.908Z,99.90
2018-08-08T22:31:12.032Z,99.90
2018-08-08T22:33:40.148Z,99.90
2018-08-08T22:36:08.297Z,99.90
2018-08-08T22:38:36.393Z,99.90
2018-08-08T22:41:04.562Z,99.90
2018-08-08T22:43:32.651Z,99.90
